Time,TemperatureF,DewpointF,PressureIn,WindDirection,WindDirectionDegrees,WindSpeedMPH,WindSpeedGustMPH,Humidity,HourlyPrecipIn,Conditions,Clouds,dailyrainin,SoftwareType,DateUTC
2013-05-12 00:03:00,-999.0,-99.9,-100.00,SW,225,0.0,0.0,92,0.00,,,0.00,,2013-05-12 04:03:00,
2013-05-12 00:12:00,38.0,36.0,-100.00,South,180,2.0,5.0,92,0.00,,,0.00,,2013-05-12 04:12:00,
2013-05-12 00:22:00,38.0,36.0,-100.00,South,180,2.0,5.0,92,0.00,,,0.00,,2013-05-12 04:22:00,
2013-05-12 00:33:00,38.0,36.0,-100.00,WSW,248,3.0,6.0,93,0.00,,,0.00,,2013-05-12 04:33:00,
2013-05-12 00:43:00,38.0,36.0,-100.00,SW,225,2.0,10.0,93,0.00,,,0.00,,2013-05-12 04:43:00,
2013-05-12 00:52:00,38.0,36.0,-100.00,SW,225,2.0,10.0,93,0.00,,,0.00,,2013-05-12 04:52:00,
2013-05-12 01:02:00,38.0,36.0,-100.00,SSW,203,1.0,5.0,93,0.00,,,0.00,,2013-05-12 05:02:00,
2013-05-12 01:12:00,38.0,36.0,-100.00,SSW,203,1.0,5.0,93,0.00,,,0.00,,2013-05-12 05:12:00,
2013-05-12 01:22:00,38.0,36.0,-100.00,WSW,248,5.0,8.0,94,0.00,,,0.00,,2013-05-12 05:22:00,
2013-05-12 01:32:00,38.0,36.0,-100.00,SSW,203,6.0,8.0,94,0.00,,,0.00,,2013-05-12 05:32:00,
2013-05-12 01:42:00,38.0,36.0,-100.00,SSW,203,6.0,8.0,94,0.00,,,0.00,,2013-05-12 05:42:00,
2013-05-12 01:52:00,38.0,37.0,-100.00,WSW,248,5.0,8.0,95,0.00,,,0.00,,2013-05-12 05:52:00,
2013-05-12 02:01:00,38.0,37.0,-100.00,SW,225,6.0,9.0,95,0.00,,,0.00,,2013-05-12 06:01:00,
2013-05-12 02:11:00,37.0,36.0,-100.00,WSW,248,3.0,12.0,95,0.00,,,0.00,,2013-05-12 06:11:00,
2013-05-12 02:21:00,37.0,36.0,-100.00,WSW,248,3.0,12.0,95,0.00,,,0.00,,2013-05-12 06:21:00,
2013-05-12 02:32:00,37.0,36.0,-100.00,SW,225,2.0,9.0,95,0.00,,,0.00,,2013-05-12 06:32:00,
2013-05-12 02:42:00,37.0,36.0,-100.00,WSW,248,5.0,8.0,95,0.00,,,0.00,,2013-05-12 06:42:00,
2013-05-12 02:52:00,37.0,36.0,-100.00,WSW,248,5.0,8.0,95,0.00,,,0.00,,2013-05-12 06:52:00,
2013-05-12 03:01:00,37.0,35.0,-100.00,WSW,248,8.0,12.0,94,0.00,,,0.00,,2013-05-12 07:01:00,
2013-05-12 03:11:00,38.0,36.0,-100.00,SW,225,8.0,8.0,93,0.00,,,0.00,,2013-05-12 07:11:00,
2013-05-12 03:21:00,38.0,36.0,-100.00,SW,225,8.0,8.0,93,0.00,,,0.00,,2013-05-12 07:21:00,
2013-05-12 03:32:00,38.0,36.0,-100.00,West,270,7.0,13.0,92,0.00,,,0.00,,2013-05-12 07:32:00,
2013-05-12 03:42:00,38.0,36.0,-100.00,West,270,7.0,13.0,92,0.00,,,0.00,,2013-05-12 07:42:00,
2013-05-12 03:52:00,38.0,36.0,-100.00,West,270,7.0,16.0,91,0.00,,,0.00,,2013-05-12 07:52:00,
2013-05-12 04:02:00,38.0,36.0,-100.00,West,270,7.0,10.0,91,0.00,,,0.00,,2013-05-12 08:02:00,
2013-05-12 04:11:00,38.0,36.0,-100.00,WSW,248,7.0,12.0,91,0.00,,,0.00,,2013-05-12 08:11:00,
2013-05-12 04:21:00,38.0,36.0,-100.00,WSW,248,7.0,12.0,91,0.00,,,0.00,,2013-05-12 08:21:00,
2013-05-12 04:32:00,37.0,35.0,-100.00,WSW,248,5.0,8.0,91,0.00,,,0.00,,2013-05-12 08:32:00,
2013-05-12 04:42:00,37.0,35.0,-100.00,WSW,248,5.0,8.0,91,0.00,,,0.00,,2013-05-12 08:42:00,
2013-05-12 04:53:00,37.0,35.0,-100.00,WSW,248,6.0,9.0,91,0.00,,,0.00,,2013-05-12 08:53:00,
2013-05-12 05:01:00,37.0,34.0,-100.00,West,270,3.0,5.0,90,0.00,,,0.00,,2013-05-12 09:01:00,
2013-05-12 05:11:00,37.0,34.0,-100.00,SW,225,5.0,8.0,90,0.00,,,0.00,,2013-05-12 09:11:00,
2013-05-12 05:21:00,37.0,34.0,-100.00,SW,225,5.0,8.0,90,0.00,,,0.00,,2013-05-12 09:21:00,
2013-05-12 05:33:00,37.0,34.0,-100.00,WSW,248,6.0,7.0,90,0.00,,,0.00,,2013-05-12 09:33:00,
2013-05-12 05:42:00,37.0,34.0,-100.00,WSW,248,6.0,7.0,90,0.00,,,0.00,,2013-05-12 09:42:00,
2013-05-12 05:53:00,37.0,34.0,-100.00,WSW,248,8.0,12.0,90,0.00,,,0.00,,2013-05-12 09:53:00,
2013-05-12 06:03:00,37.0,35.0,-100.00,West,270,5.0,7.0,91,0.00,,,0.00,,2013-05-12 10:03:00,
2013-05-12 06:12:00,36.0,34.0,-100.00,WSW,248,5.0,9.0,92,0.00,,,0.00,,2013-05-12 10:12:00,
2013-05-12 06:22:00,36.0,34.0,-100.00,WSW,248,5.0,9.0,92,0.00,,,0.00,,2013-05-12 10:22:00,
2013-05-12 06:33:00,36.0,34.0,-100.00,SW,225,7.0,8.0,92,0.00,,,0.00,,2013-05-12 10:33:00,
2013-05-12 06:42:00,36.0,34.0,-100.00,SW,225,7.0,8.0,92,0.00,,,0.00,,2013-05-12 10:42:00,
2013-05-12 06:52:00,37.0,35.0,-100.00,WSW,248,7.0,9.0,92,0.00,,,0.00,,2013-05-12 10:52:00,
2013-05-12 07:02:00,37.0,35.0,-100.00,WSW,248,8.0,20.0,91,0.00,,,0.00,,2013-05-12 11:02:00,
2013-05-12 07:12:00,37.0,35.0,-100.00,WSW,248,8.0,20.0,91,0.00,,,0.00,,2013-05-12 11:12:00,
2013-05-12 07:22:00,37.0,34.0,-100.00,West,270,7.0,13.0,89,0.00,,,0.00,,2013-05-12 11:22:00,
2013-05-12 07:32:00,37.0,33.0,-100.00,West,270,8.0,23.0,86,0.00,,,0.00,,2013-05-12 11:32:00,
2013-05-12 07:42:00,38.0,34.0,-100.00,WSW,248,9.0,9.0,85,0.00,,,0.00,,2013-05-12 11:42:00,
2013-05-12 07:52:00,38.0,34.0,-100.00,WSW,248,9.0,9.0,85,0.00,,,0.00,,2013-05-12 11:52:00,
2013-05-12 08:02:00,38.0,34.0,-100.00,West,270,9.0,14.0,85,0.00,,,0.00,,2013-05-12 12:02:00,
2013-05-12 08:11:00,38.0,34.0,-100.00,West,270,8.0,10.0,84,0.00,,,0.00,,2013-05-12 12:11:00,
2013-05-12 08:21:00,38.0,34.0,-100.00,West,270,8.0,10.0,84,0.00,,,0.00,,2013-05-12 12:21:00,
2013-05-12 08:32:00,38.0,34.0,-100.00,West,270,6.0,8.0,84,0.00,,,0.00,,2013-05-12 12:32:00,
2013-05-12 08:41:00,38.0,34.0,-100.00,West,270,6.0,8.0,84,0.00,,,0.00,,2013-05-12 12:41:00,
2013-05-12 08:52:00,39.0,34.0,-100.00,WNW,293,6.0,8.0,81,0.00,,,0.00,,2013-05-12 12:52:00,
2013-05-12 09:02:00,39.0,33.0,-100.00,West,270,10.0,14.0,80,0.00,,,0.00,,2013-05-12 13:02:00,
2013-05-12 09:11:00,39.0,33.0,-100.00,West,270,10.0,14.0,80,0.00,,,0.00,,2013-05-12 13:11:00,
2013-05-12 09:21:00,39.0,32.0,-100.00,WSW,248,9.0,16.0,77,0.00,,,0.00,,2013-05-12 13:21:00,
2013-05-12 09:32:00,39.0,32.0,-100.00,WSW,248,14.0,18.0,76,0.00,,,0.00,,2013-05-12 13:32:00,
2013-05-12 09:42:00,39.0,32.0,-100.00,WSW,248,14.0,18.0,76,0.00,,,0.00,,2013-05-12 13:42:00,
2013-05-12 09:52:00,40.0,33.0,-100.00,West,270,10.0,14.0,75,0.00,,,0.00,,2013-05-12 13:52:00,
2013-05-12 10:01:00,40.0,33.0,-100.00,West,270,12.0,16.0,75,0.00,,,0.00,,2013-05-12 14:01:00,
2013-05-12 10:11:00,40.0,33.0,-100.00,West,270,12.0,16.0,75,0.00,,,0.00,,2013-05-12 14:11:00,
2013-05-12 10:21:00,40.0,33.0,-100.00,West,270,10.0,17.0,76,0.00,,,0.00,,2013-05-12 14:21:00,
2013-05-12 10:32:00,40.0,33.0,-100.00,West,270,8.0,15.0,75,0.00,,,0.00,,2013-05-12 14:32:00,
2013-05-12 10:42:00,41.0,33.0,-100.00,WNW,293,7.0,12.0,73,0.00,,,0.00,,2013-05-12 14:42:00,
2013-05-12 10:52:00,41.0,33.0,-100.00,WNW,293,7.0,12.0,73,0.00,,,0.00,,2013-05-12 14:52:00,
2013-05-12 11:01:00,41.0,33.0,-100.00,West,270,7.0,10.0,72,0.00,,,0.00,,2013-05-12 15:01:00,
2013-05-12 11:11:00,42.0,34.0,-100.00,WNW,293,7.0,10.0,72,0.00,,,0.00,,2013-05-12 15:11:00,
2013-05-12 11:21:00,42.0,34.0,-100.00,WNW,293,7.0,10.0,72,0.00,,,0.00,,2013-05-12 15:21:00,
2013-05-12 11:34:00,42.0,33.0,-100.00,WNW,293,5.0,13.0,71,0.00,,,0.00,,2013-05-12 15:34:00,
2013-05-12 11:42:00,42.0,33.0,-100.00,WNW,293,5.0,13.0,71,0.00,,,0.00,,2013-05-12 15:42:00,
2013-05-12 11:53:00,43.0,33.0,-100.00,West,270,8.0,15.0,68,0.00,,,0.00,,2013-05-12 15:53:00,
2013-05-12 12:02:00,43.0,33.0,-100.00,WNW,293,2.0,7.0,67,0.00,,,0.00,,2013-05-12 16:02:00,
2013-05-12 12:12:00,43.0,32.0,-100.00,West,270,7.0,17.0,65,0.00,,,0.00,,2013-05-12 16:12:00,
2013-05-12 12:23:00,43.0,32.0,-100.00,West,270,7.0,17.0,65,0.00,,,0.00,,2013-05-12 16:23:00,
2013-05-12 12:33:00,43.0,32.0,-100.00,West,270,6.0,10.0,64,0.00,,,0.00,,2013-05-12 16:33:00,
2013-05-12 12:42:00,43.0,32.0,-100.00,West,270,6.0,10.0,64,0.00,,,0.00,,2013-05-12 16:42:00,
2013-05-12 12:53:00,44.0,32.0,-100.00,WNW,293,7.0,9.0,62,0.00,,,0.00,,2013-05-12 16:53:00,
2013-05-12 13:02:00,44.0,33.0,-100.00,West,270,9.0,12.0,64,0.00,,,0.00,,2013-05-12 17:02:00,
2013-05-12 13:12:00,45.0,32.0,-100.00,West,270,16.0,21.0,59,0.00,,,0.00,,2013-05-12 17:12:00,
2013-05-12 13:22:00,45.0,32.0,-100.00,West,270,16.0,21.0,59,0.00,,,0.00,,2013-05-12 17:22:00,
2013-05-12 13:32:00,45.0,32.0,-100.00,West,270,8.0,29.0,61,0.00,,,0.00,,2013-05-12 17:32:00,
2013-05-12 13:42:00,45.0,31.0,-100.00,West,270,13.0,15.0,58,0.00,,,0.00,,2013-05-12 17:42:00,
2013-05-12 13:53:00,45.0,31.0,-100.00,West,270,13.0,15.0,58,0.00,,,0.00,,2013-05-12 17:53:00,
2013-05-12 14:01:00,44.0,31.0,-100.00,West,270,9.0,15.0,61,0.00,,,0.00,,2013-05-12 18:01:00,
2013-05-12 14:12:00,44.0,31.0,-100.00,West,270,9.0,15.0,61,0.00,,,0.00,,2013-05-12 18:12:00,
2013-05-12 14:22:00,44.0,33.0,-100.00,West,270,5.0,10.0,65,0.00,,,0.00,,2013-05-12 18:22:00,
2013-05-12 14:32:00,45.0,30.0,-100.00,WNW,293,12.0,15.0,56,0.00,,,0.00,,2013-05-12 18:32:00,
2013-05-12 14:42:00,45.0,30.0,-100.00,WNW,293,12.0,15.0,56,0.00,,,0.00,,2013-05-12 18:42:00,
2013-05-12 14:52:00,43.0,33.0,-100.00,WNW,293,6.0,7.0,68,0.00,,,0.00,,2013-05-12 18:52:00,
2013-05-12 15:01:00,43.0,34.0,-100.00,WNW,293,6.0,13.0,70,0.00,,,0.00,,2013-05-12 19:01:00,
2013-05-12 15:11:00,43.0,34.0,-100.00,WNW,293,6.0,13.0,70,0.00,,,0.00,,2013-05-12 19:11:00,
2013-05-12 15:22:00,44.0,33.0,-100.00,WNW,293,7.0,12.0,65,0.00,,,0.00,,2013-05-12 19:22:00,
2013-05-12 15:32:00,43.0,30.0,-100.00,WNW,293,12.0,22.0,61,0.00,,,0.00,,2013-05-12 19:32:00,
2013-05-12 15:42:00,43.0,31.0,-100.00,West,270,8.0,21.0,62,0.00,,,0.00,,2013-05-12 19:42:00,
2013-05-12 15:52:00,43.0,31.0,-100.00,West,270,8.0,21.0,62,0.00,,,0.00,,2013-05-12 19:52:00,
2013-05-12 16:02:00,42.0,31.0,-100.00,West,270,8.0,10.0,64,0.00,,,0.00,,2013-05-12 20:02:00,
2013-05-12 16:11:00,42.0,30.0,-100.00,West,270,10.0,20.0,63,0.00,,,0.00,,2013-05-12 20:11:00,
2013-05-12 16:21:00,42.0,30.0,-100.00,West,270,10.0,20.0,63,0.00,,,0.00,,2013-05-12 20:21:00,
2013-05-12 16:32:00,41.0,29.0,-100.00,West,270,12.0,15.0,63,0.00,,,0.00,,2013-05-12 20:32:00,
2013-05-12 16:42:00,42.0,30.0,-100.00,West,270,5.0,16.0,63,0.00,,,0.00,,2013-05-12 20:42:00,
2013-05-12 16:52:00,42.0,30.0,-100.00,West,270,5.0,16.0,63,0.00,,,0.00,,2013-05-12 20:52:00,
2013-05-12 17:01:00,41.0,29.0,-100.00,West,270,8.0,26.0,62,0.00,,,0.00,,2013-05-12 21:01:00,
2013-05-12 17:11:00,41.0,29.0,-100.00,West,270,3.0,7.0,62,0.00,,,0.00,,2013-05-12 21:11:00,
2013-05-12 17:21:00,41.0,29.0,-100.00,West,270,3.0,7.0,62,0.00,,,0.00,,2013-05-12 21:21:00,
2013-05-12 17:33:00,41.0,29.0,-100.00,West,270,9.0,13.0,62,0.00,,,0.00,,2013-05-12 21:33:00,
2013-05-12 17:42:00,41.0,29.0,-100.00,West,270,9.0,13.0,62,0.00,,,0.00,,2013-05-12 21:42:00,
2013-05-12 17:53:00,41.0,29.0,-100.00,West,270,3.0,6.0,62,0.00,,,0.00,,2013-05-12 21:53:00,
2013-05-12 18:02:00,41.0,29.0,-100.00,West,270,7.0,14.0,61,0.00,,,0.00,,2013-05-12 22:02:00,
2013-05-12 18:12:00,41.0,29.0,-100.00,WNW,293,5.0,13.0,61,0.00,,,0.00,,2013-05-12 22:12:00,
2013-05-12 18:23:00,41.0,29.0,-100.00,WNW,293,5.0,13.0,61,0.00,,,0.00,,2013-05-12 22:23:00,
2013-05-12 18:33:00,41.0,29.0,-100.00,West,270,5.0,12.0,61,0.00,,,0.00,,2013-05-12 22:33:00,
2013-05-12 18:42:00,41.0,29.0,-100.00,West,270,5.0,12.0,61,0.00,,,0.00,,2013-05-12 22:42:00,
2013-05-12 18:52:00,40.0,28.0,-100.00,West,270,6.0,10.0,62,0.00,,,0.00,,2013-05-12 22:52:00,
2013-05-12 19:02:00,40.0,28.0,-100.00,West,270,7.0,17.0,61,0.00,,,0.00,,2013-05-12 23:02:00,
2013-05-12 19:12:00,40.0,27.0,-100.00,NNW,338,6.0,9.0,60,0.00,,,0.00,,2013-05-12 23:12:00,
2013-05-12 19:22:00,40.0,27.0,-100.00,NNW,338,6.0,9.0,60,0.00,,,0.00,,2013-05-12 23:22:00,
2013-05-12 19:32:00,40.0,27.0,-100.00,West,270,2.0,7.0,60,0.00,,,0.00,,2013-05-12 23:32:00,
2013-05-12 19:42:00,40.0,27.0,-100.00,West,270,2.0,7.0,60,0.00,,,0.00,,2013-05-12 23:42:00,
2013-05-12 19:52:00,40.0,28.0,-100.00,West,270,5.0,10.0,62,0.00,,,0.00,,2013-05-12 23:52:00,
2013-05-12 20:01:00,40.0,28.0,-100.00,WNW,293,3.0,6.0,63,0.00,,,0.00,,2013-05-13 00:01:00,
2013-05-12 20:11:00,40.0,28.0,-100.00,WNW,293,3.0,6.0,63,0.00,,,0.00,,2013-05-13 00:11:00,
2013-05-12 20:21:00,39.0,27.0,-100.00,West,270,2.0,6.0,63,0.00,,,0.00,,2013-05-13 00:21:00,
2013-05-12 20:32:00,40.0,28.0,-100.00,NW,315,2.0,5.0,62,0.00,,,0.00,,2013-05-13 00:32:00,
2013-05-12 20:42:00,39.0,27.0,-100.00,WNW,293,0.0,8.0,63,0.00,,,0.00,,2013-05-13 00:42:00,
2013-05-12 20:52:00,39.0,27.0,-100.00,WNW,293,0.0,8.0,63,0.00,,,0.00,,2013-05-13 00:52:00,
2013-05-12 21:01:00,39.0,27.0,-100.00,West,270,1.0,0.0,63,0.00,,,0.00,,2013-05-13 01:01:00,
2013-05-12 21:11:00,39.0,27.0,-100.00,West,270,1.0,0.0,63,0.00,,,0.00,,2013-05-13 01:11:00,
2013-05-12 21:22:00,39.0,28.0,-100.00,WSW,248,1.0,3.0,65,0.00,,,0.00,,2013-05-13 01:22:00,
2013-05-12 21:31:00,38.0,27.0,-100.00,NW,315,5.0,8.0,64,0.00,,,0.00,,2013-05-13 01:31:00,
2013-05-12 21:42:00,38.0,27.0,-100.00,NW,315,5.0,8.0,64,0.00,,,0.00,,2013-05-13 01:42:00,
2013-05-12 21:52:00,38.0,27.0,-100.00,West,270,0.0,0.0,65,0.00,,,0.00,,2013-05-13 01:52:00,
2013-05-12 22:01:00,38.0,28.0,-100.00,NW,315,0.0,0.0,66,0.00,,,0.00,,2013-05-13 02:01:00,
2013-05-12 22:11:00,38.0,28.0,-100.00,NW,315,0.0,0.0,66,0.00,,,0.00,,2013-05-13 02:11:00,
2013-05-12 22:21:00,37.0,27.0,-100.00,West,270,1.0,6.0,68,0.00,,,0.00,,2013-05-13 02:21:00,
2013-05-12 22:32:00,37.0,27.0,-100.00,West,270,0.0,0.0,68,0.00,,,0.00,,2013-05-13 02:32:00,
2013-05-12 22:42:00,37.0,27.0,-100.00,West,270,0.0,0.0,68,0.00,,,0.00,,2013-05-13 02:42:00,
2013-05-12 22:52:00,36.0,27.0,-100.00,WNW,293,0.0,0.0,69,0.00,,,0.00,,2013-05-13 02:52:00,
2013-05-12 23:02:00,36.0,27.0,-100.00,WNW,293,0.0,0.0,70,0.00,,,0.00,,2013-05-13 03:02:00,
2013-05-12 23:11:00,35.0,27.0,-100.00,WNW,293,0.0,7.0,72,0.00,,,0.00,,2013-05-13 03:11:00,
2013-05-12 23:21:00,35.0,27.0,-100.00,WNW,293,0.0,7.0,72,0.00,,,0.00,,2013-05-13 03:21:00,
2013-05-12 23:32:00,35.0,27.0,-100.00,West,270,0.0,0.0,71,0.00,,,0.00,,2013-05-13 03:32:00,
2013-05-12 23:42:00,35.0,27.0,-100.00,West,270,0.0,0.0,71,0.00,,,0.00,,2013-05-13 03:42:00,
2013-05-12 23:53:00,35.0,27.0,-100.00,WSW,248,0.0,0.0,72,0.00,,,0.00,,2013-05-13 03:53:00,